sensor_id;sensor_type;location;lat;lon;timestamp;pressure;altitude;pressure_sealevel;temperature;humidity
67738;BME280;54534;43.612;1.572;2022-08-16T00:02:07;98389.69;;;25.81;40.85
67738;BME280;54534;43.612;1.572;2022-08-16T00:04:33;98384.31;;;25.81;40.50
67738;BME280;54534;43.612;1.572;2022-08-16T00:06:59;98373.75;;;25.80;40.65
67738;BME280;54534;43.612;1.572;2022-08-16T00:09:25;98375.38;;;25.81;40.84
67738;BME280;54534;43.612;1.572;2022-08-16T00:11:51;98374.53;;;25.80;40.30
67738;BME280;54534;43.612;1.572;2022-08-16T00:14:21;98377.25;;;25.80;40.60
67738;BME280;54534;43.612;1.572;2022-08-16T00:16:47;98377.25;;;25.80;40.55
67738;BME280;54534;43.612;1.572;2022-08-16T00:19:19;98378.28;;;25.79;40.58
67738;BME280;54534;43.612;1.572;2022-08-16T00:21:45;98368.72;;;25.76;40.60
67738;BME280;54534;43.612;1.572;2022-08-16T00:24:12;98368.72;;;25.76;40.54
67738;BME280;54534;43.612;1.572;2022-08-16T00:26:38;98371.59;;;25.75;40.93
67738;BME280;54534;43.612;1.572;2022-08-16T00:29:03;98368.09;;;25.74;40.92
67738;BME280;54534;43.612;1.572;2022-08-16T00:31:33;98359.19;;;25.74;40.88
67738;BME280;54534;43.612;1.572;2022-08-16T00:33:59;98364.56;;;25.74;40.82
67738;BME280;54534;43.612;1.572;2022-08-16T00:36:24;98359.31;;;25.72;40.96
67738;BME280;54534;43.612;1.572;2022-08-16T00:38:50;98363.06;;;25.71;40.58
67738;BME280;54534;43.612;1.572;2022-08-16T00:41:16;98371.13;;;25.71;40.89
67738;BME280;54534;43.612;1.572;2022-08-16T00:43:42;98368.63;;;25.70;40.74
67738;BME280;54534;43.612;1.572;2022-08-16T00:48:49;98367.81;;;25.69;40.83
67738;BME280;54534;43.612;1.572;2022-08-16T00:51:17;98372.34;;;25.69;40.45
67738;BME280;54534;43.612;1.572;2022-08-16T00:53:43;98362.59;;;25.68;40.72
67738;BME280;54534;43.612;1.572;2022-08-16T00:56:11;98365.28;;;25.68;40.38
67738;BME280;54534;43.612;1.572;2022-08-16T00:58:39;98352.88;;;25.66;40.45
67738;BME280;54534;43.612;1.572;2022-08-16T01:01:07;98352.03;;;25.66;40.11
67738;BME280;54534;43.612;1.572;2022-08-16T01:03:34;98351.19;;;25.65;39.99
67738;BME280;54534;43.612;1.572;2022-08-16T01:06:01;98347.66;;;25.65;39.93
67738;BME280;54534;43.612;1.572;2022-08-16T01:08:26;98346.81;;;25.64;40.34
67738;BME280;54534;43.612;1.572;2022-08-16T01:10:52;98361.31;;;25.63;40.07
67738;BME280;54534;43.612;1.572;2022-08-16T01:13:23;98350.72;;;25.62;40.07
67738;BME280;54534;43.612;1.572;2022-08-16T01:15:54;98349.91;;;25.61;40.14
67738;BME280;54534;43.612;1.572;2022-08-16T01:18:22;98354.63;;;25.59;40.03
67738;BME280;54534;43.612;1.572;2022-08-16T01:21:15;98346.56;;;25.59;40.08
67738;BME280;54534;43.612;1.572;2022-08-16T01:24:05;98344.06;;;25.58;40.15
67738;BME280;54534;43.612;1.572;2022-08-16T01:26:35;98345.94;;;25.57;40.11
67738;BME280;54534;43.612;1.572;2022-08-16T01:29:07;98342.41;;;25.57;39.81
67738;BME280;54534;43.612;1.572;2022-08-16T01:31:33;98336.19;;;25.56;40.06
67738;BME280;54534;43.612;1.572;2022-08-16T01:33:59;98329.16;;;25.55;39.96
67738;BME280;54534;43.612;1.572;2022-08-16T01:36:24;98333.69;;;25.54;40.16
67738;BME280;54534;43.612;1.572;2022-08-16T01:38:50;98326.63;;;25.53;40.26
67738;BME280;54534;43.612;1.572;2022-08-16T01:41:25;98332.84;;;25.54;40.11
67738;BME280;54534;43.612;1.572;2022-08-16T01:43:52;98321.44;;;25.52;40.03
67738;BME280;54534;43.612;1.572;2022-08-16T01:48:46;98321.66;;;25.50;40.33
67738;BME280;54534;43.612;1.572;2022-08-16T01:51:13;98322.66;;;25.49;40.18
67738;BME280;54534;43.612;1.572;2022-08-16T01:53:41;98316.44;;;25.49;40.53
67738;BME280;54534;43.612;1.572;2022-08-16T01:56:06;98319.97;;;25.49;40.41
67738;BME280;54534;43.612;1.572;2022-08-16T01:58:32;98317.47;;;25.48;40.34
67738;BME280;54534;43.612;1.572;2022-08-16T02:00:57;98323.88;;;25.47;40.40
67738;BME280;54534;43.612;1.572;2022-08-16T02:03:23;98320.34;;;25.46;40.55
67738;BME280;54534;43.612;1.572;2022-08-16T02:05:49;98324.88;;;25.46;40.29
67738;BME280;54534;43.612;1.572;2022-08-16T02:08:14;98321.38;;;25.45;40.51
67738;BME280;54534;43.612;1.572;2022-08-16T02:10:39;98313.50;;;25.43;40.71
67738;BME280;54534;43.612;1.572;2022-08-16T02:13:06;98312.66;;;25.43;40.52
67738;BME280;54534;43.612;1.572;2022-08-16T02:15:34;98314.53;;;25.42;40.42
67738;BME280;54534;43.612;1.572;2022-08-16T02:18:00;98309.16;;;25.42;40.63
67738;BME280;54534;43.612;1.572;2022-08-16T02:20:35;98304.78;;;25.41;40.22
67738;BME280;54534;43.612;1.572;2022-08-16T02:23:02;98305.78;;;25.40;40.43
67738;BME280;54534;43.612;1.572;2022-08-16T02:25:28;98300.41;;;25.40;40.65
67738;BME280;54534;43.612;1.572;2022-08-16T02:27:54;98297.09;;;25.38;40.58
67738;BME280;54534;43.612;1.572;2022-08-16T02:30:26;98297.94;;;25.39;40.65
67738;BME280;54534;43.612;1.572;2022-08-16T02:32:52;98292.53;;;25.39;40.66
67738;BME280;54534;43.612;1.572;2022-08-16T02:35:19;98295.44;;;25.37;40.53
67738;BME280;54534;43.612;1.572;2022-08-16T02:37:44;98293.75;;;25.36;40.51
67738;BME280;54534;43.612;1.572;2022-08-16T02:40:11;98286.69;;;25.35;40.22
67738;BME280;54534;43.612;1.572;2022-08-16T02:42:37;98289.38;;;25.35;40.15
67738;BME280;54534;43.612;1.572;2022-08-16T02:45:03;98286.91;;;25.33;40.22
67738;BME280;54534;43.612;1.572;2022-08-16T02:47:29;98286.06;;;25.33;40.60
67738;BME280;54534;43.612;1.572;2022-08-16T02:49:55;98279.03;;;25.32;40.47
67738;BME280;54534;43.612;1.572;2022-08-16T02:52:20;98287.09;;;25.32;40.43
67738;BME280;54534;43.612;1.572;2022-08-16T02:54:46;98280.06;;;25.31;40.37
67738;BME280;54534;43.612;1.572;2022-08-16T02:57:12;98276.53;;;25.30;40.15
67738;BME280;54534;43.612;1.572;2022-08-16T02:59:37;98273.00;;;25.30;40.17
67738;BME280;54534;43.612;1.572;2022-08-16T03:02:05;98260.59;;;25.29;39.92
67738;BME280;54534;43.612;1.572;2022-08-16T03:04:30;98258.91;;;25.28;39.99
67738;BME280;54534;43.612;1.572;2022-08-16T03:06:56;98254.34;;;25.28;39.95
67738;BME280;54534;43.612;1.572;2022-08-16T03:09:21;98254.53;;;25.27;39.99
67738;BME280;54534;43.612;1.572;2022-08-16T03:11:47;98258.28;;;25.26;40.15
67738;BME280;54534;43.612;1.572;2022-08-16T03:14:13;98263.66;;;25.26;40.06
67738;BME280;54534;43.612;1.572;2022-08-16T03:16:39;98255.56;;;25.26;40.27
67738;BME280;54534;43.612;1.572;2022-08-16T03:19:06;98261.97;;;25.25;40.06
67738;BME280;54534;43.612;1.572;2022-08-16T03:21:31;98259.28;;;25.25;40.07
67738;BME280;54534;43.612;1.572;2022-08-16T03:23:57;98255.75;;;25.24;40.08
67738;BME280;54534;43.612;1.572;2022-08-16T03:26:22;98246.03;;;25.23;40.06
67738;BME280;54534;43.612;1.572;2022-08-16T03:28:48;98242.50;;;25.23;40.02
67738;BME280;54534;43.612;1.572;2022-08-16T03:31:13;98237.97;;;25.23;40.26
67738;BME280;54534;43.612;1.572;2022-08-16T03:33:39;98235.28;;;25.23;40.25
67738;BME280;54534;43.612;1.572;2022-08-16T03:36:05;98238.13;;;25.21;39.88
67738;BME280;54534;43.612;1.572;2022-08-16T03:38:31;98238.13;;;25.21;39.88
67738;BME280;54534;43.612;1.572;2022-08-16T03:40:58;98226.56;;;25.21;39.83
67738;BME280;54534;43.612;1.572;2022-08-16T03:43:25;98214.97;;;25.20;40.02
67738;BME280;54534;43.612;1.572;2022-08-16T03:45:53;98216.81;;;25.20;40.16
67738;BME280;54534;43.612;1.572;2022-08-16T03:48:21;98212.44;;;25.19;40.10
67738;BME280;54534;43.612;1.572;2022-08-16T03:50:48;98210.81;;;25.18;39.90
67738;BME280;54534;43.612;1.572;2022-08-16T03:53:13;98212.66;;;25.17;39.68
67738;BME280;54534;43.612;1.572;2022-08-16T03:55:39;98218.88;;;25.18;39.76
67738;BME280;54534;43.612;1.572;2022-08-16T03:58:05;98220.72;;;25.17;40.04
67738;BME280;54534;43.612;1.572;2022-08-16T04:00:30;98216.19;;;25.18;40.05
67738;BME280;54534;43.612;1.572;2022-08-16T04:02:57;98213.66;;;25.16;39.63
67738;BME280;54534;43.612;1.572;2022-08-16T04:05:27;98213.88;;;25.15;39.91
67738;BME280;54534;43.612;1.572;2022-08-16T04:07:53;98212.19;;;25.14;39.72
67738;BME280;54534;43.612;1.572;2022-08-16T04:10:18;98220.25;;;25.14;39.98
67738;BME280;54534;43.612;1.572;2022-08-16T04:12:45;98222.16;;;25.13;39.99
67738;BME280;54534;43.612;1.572;2022-08-16T04:15:14;98220.47;;;25.12;39.92
67738;BME280;54534;43.612;1.572;2022-08-16T04:17:39;98226.88;;;25.11;40.02
67738;BME280;54534;43.612;1.572;2022-08-16T04:20:06;98221.47;;;25.11;40.00
67738;BME280;54534;43.612;1.572;2022-08-16T04:22:33;98211.75;;;25.10;39.68
67738;BME280;54534;43.612;1.572;2022-08-16T04:24:59;98205.75;;;25.08;39.54
67738;BME280;54534;43.612;1.572;2022-08-16T04:27:25;98209.25;;;25.08;39.89
67738;BME280;54534;43.612;1.572;2022-08-16T04:29:51;98212.78;;;25.09;39.74
67738;BME280;54534;43.612;1.572;2022-08-16T04:32:16;98203.06;;;25.08;40.06
67738;BME280;54534;43.612;1.572;2022-08-16T04:34:41;98211.31;;;25.06;39.82
67738;BME280;54534;43.612;1.572;2022-08-16T04:37:07;98213.16;;;25.06;40.10
67738;BME280;54534;43.612;1.572;2022-08-16T04:39:34;98202.41;;;25.06;40.03
67738;BME280;54534;43.612;1.572;2022-08-16T04:42:00;98200.75;;;25.05;39.84
67738;BME280;54534;43.612;1.572;2022-08-16T04:44:26;98196.38;;;25.04;40.05
67738;BME280;54534;43.612;1.572;2022-08-16T04:46:51;98195.53;;;25.03;39.72
67738;BME280;54534;43.612;1.572;2022-08-16T04:49:18;98196.38;;;25.04;39.77
67738;BME280;54534;43.612;1.572;2022-08-16T04:51:43;98201.13;;;25.02;39.90
67738;BME280;54534;43.612;1.572;2022-08-16T04:54:09;98196.59;;;25.02;40.06
67738;BME280;54534;43.612;1.572;2022-08-16T04:56:35;98201.13;;;25.02;39.85
67738;BME280;54534;43.612;1.572;2022-08-16T04:59:01;98192.22;;;25.01;40.25
67738;BME280;54534;43.612;1.572;2022-08-16T05:01:27;98199.63;;;24.99;40.16
67738;BME280;54534;43.612;1.572;2022-08-16T05:03:52;98197.13;;;24.97;40.17
67738;BME280;54534;43.612;1.572;2022-08-16T05:06:18;98194.19;;;24.92;39.92
67738;BME280;54534;43.612;1.572;2022-08-16T05:08:44;98195.94;;;24.85;39.91
67738;BME280;54534;43.612;1.572;2022-08-16T05:11:11;98201.56;;;24.68;39.96
67738;BME280;54534;43.612;1.572;2022-08-16T05:13:39;98202.78;;;24.50;39.93
67738;BME280;54534;43.612;1.572;2022-08-16T05:16:05;98196.59;;;24.35;40.39
67738;BME280;54534;43.612;1.572;2022-08-16T05:18:34;98192.41;;;24.17;40.74
67738;BME280;54534;43.612;1.572;2022-08-16T05:20:59;98183.34;;;24.03;40.90
67738;BME280;54534;43.612;1.572;2022-08-16T05:23:25;98190.19;;;23.90;41.38
67738;BME280;54534;43.612;1.572;2022-08-16T05:25:50;98195.84;;;23.80;41.44
67738;BME280;54534;43.612;1.572;2022-08-16T05:28:16;98189.88;;;23.70;41.69
67738;BME280;54534;43.612;1.572;2022-08-16T05:30:42;98190.13;;;23.60;41.93
67738;BME280;54534;43.612;1.572;2022-08-16T05:33:08;98194.88;;;23.49;42.04
67738;BME280;54534;43.612;1.572;2022-08-16T05:35:34;98206.34;;;23.43;42.37
67738;BME280;54534;43.612;1.572;2022-08-16T05:37:59;98198.53;;;23.33;42.59
67738;BME280;54534;43.612;1.572;2022-08-16T05:40:24;98192.59;;;23.22;42.68
67738;BME280;54534;43.612;1.572;2022-08-16T05:42:50;98198.03;;;23.14;42.85
67738;BME280;54534;43.612;1.572;2022-08-16T05:45:15;98195.22;;;23.07;43.22
67738;BME280;54534;43.612;1.572;2022-08-16T05:47:41;98195.94;;;23.01;43.38
67738;BME280;54534;43.612;1.572;2022-08-16T05:50:07;98203.50;;;22.97;43.51
67738;BME280;54534;43.612;1.572;2022-08-16T05:52:33;98196.81;;;22.93;43.87
67738;BME280;54534;43.612;1.572;2022-08-16T05:54:59;98193.81;;;22.88;43.71
67738;BME280;54534;43.612;1.572;2022-08-16T05:57:25;98195.84;;;22.86;43.92
67738;BME280;54534;43.612;1.572;2022-08-16T05:59:50;98188.34;;;22.81;44.19
67738;BME280;54534;43.612;1.572;2022-08-16T06:02:16;98192.03;;;22.80;44.43
67738;BME280;54534;43.612;1.572;2022-08-16T06:04:42;98194.88;;;22.78;44.48
67738;BME280;54534;43.612;1.572;2022-08-16T06:07:07;98191.22;;;22.80;44.57
67738;BME280;54534;43.612;1.572;2022-08-16T06:09:33;98192.88;;;22.81;44.55
67738;BME280;54534;43.612;1.572;2022-08-16T06:11:58;98184.47;;;22.84;44.91
67738;BME280;54534;43.612;1.572;2022-08-16T06:14:28;98193.66;;;22.89;44.70
67738;BME280;54534;43.612;1.572;2022-08-16T06:16:54;98184.06;;;22.95;44.57
67738;BME280;54534;43.612;1.572;2022-08-16T06:19:19;98188.56;;;23.03;44.56
67738;BME280;54534;43.612;1.572;2022-08-16T06:21:46;98187.66;;;23.11;44.42
67738;BME280;54534;43.612;1.572;2022-08-16T06:24:11;98185.09;;;23.18;44.37
67738;BME280;54534;43.612;1.572;2022-08-16T06:26:37;98184.19;;;23.26;44.32
67738;BME280;54534;43.612;1.572;2022-08-16T06:29:02;98173.59;;;23.32;44.31
67738;BME280;54534;43.612;1.572;2022-08-16T06:31:28;98178.22;;;23.39;44.16
67738;BME280;54534;43.612;1.572;2022-08-16T06:33:53;98164.28;;;23.43;44.21
67738;BME280;54534;43.612;1.572;2022-08-16T06:36:19;98151.00;;;23.50;44.04
67738;BME280;54534;43.612;1.572;2022-08-16T06:38:44;98146.91;;;23.54;44.01
67738;BME280;54534;43.612;1.572;2022-08-16T06:41:10;98140.19;;;23.59;43.91
67738;BME280;54534;43.612;1.572;2022-08-16T06:43:36;98136.75;;;23.65;43.96
67738;BME280;54534;43.612;1.572;2022-08-16T06:46:04;98131.84;;;23.69;43.99
67738;BME280;54534;43.612;1.572;2022-08-16T06:48:33;98130.47;;;23.73;43.98
67738;BME280;54534;43.612;1.572;2022-08-16T06:50:59;98137.16;;;23.77;43.88
67738;BME280;54534;43.612;1.572;2022-08-16T06:53:24;98136.78;;;23.80;43.72
67738;BME280;54534;43.612;1.572;2022-08-16T06:55:54;98135.38;;;23.84;43.87
67738;BME280;54534;43.612;1.572;2022-08-16T06:58:19;98142.22;;;23.87;43.77
67738;BME280;54534;43.612;1.572;2022-08-16T07:00:45;98135.66;;;23.89;43.69
67738;BME280;54534;43.612;1.572;2022-08-16T07:03:11;98130.75;;;23.93;43.63
67738;BME280;54534;43.612;1.572;2022-08-16T07:05:37;98128.72;;;23.95;43.72
67738;BME280;54534;43.612;1.572;2022-08-16T07:08:03;98127.31;;;23.99;43.57
67738;BME280;54534;43.612;1.572;2022-08-16T07:10:29;98128.00;;;24.02;43.54
67738;BME280;54534;43.612;1.572;2022-08-16T07:12:55;98129.47;;;24.04;43.49
67738;BME280;54534;43.612;1.572;2022-08-16T07:15:20;98120.22;;;24.07;43.54
67738;BME280;54534;43.612;1.572;2022-08-16T07:17:46;98122.50;;;24.10;43.45
67738;BME280;54534;43.612;1.572;2022-08-16T07:20:14;98117.78;;;24.12;43.48
67738;BME280;54534;43.612;1.572;2022-08-16T07:22:40;98117.59;;;24.14;43.58
67738;BME280;54534;43.612;1.572;2022-08-16T07:25:08;98114.53;;;24.17;43.42
67738;BME280;54534;43.612;1.572;2022-08-16T07:27:33;98106.28;;;24.18;43.27
67738;BME280;54534;43.612;1.572;2022-08-16T07:29:59;98109.63;;;24.20;43.39
67738;BME280;54534;43.612;1.572;2022-08-16T07:32:25;98104.91;;;24.22;43.41
67738;BME280;54534;43.612;1.572;2022-08-16T07:34:51;98110.91;;;24.25;43.42
67738;BME280;54534;43.612;1.572;2022-08-16T07:37:16;98106.22;;;24.27;43.47
67738;BME280;54534;43.612;1.572;2022-08-16T07:39:42;98101.47;;;24.29;43.38
67738;BME280;54534;43.612;1.572;2022-08-16T07:42:07;98105.84;;;24.30;43.28
67738;BME280;54534;43.612;1.572;2022-08-16T07:44:32;98110.00;;;24.32;43.30
67738;BME280;54534;43.612;1.572;2022-08-16T07:46:58;98101.75;;;24.34;43.51
67738;BME280;54534;43.612;1.572;2022-08-16T07:49:23;98100.72;;;24.35;43.34
67738;BME280;54534;43.612;1.572;2022-08-16T07:51:49;98098.69;;;24.37;43.44
67738;BME280;54534;43.612;1.572;2022-08-16T07:54:15;98093.13;;;24.39;43.47
67738;BME280;54534;43.612;1.572;2022-08-16T07:56:41;98091.09;;;24.41;43.22
67738;BME280;54534;43.612;1.572;2022-08-16T07:59:06;98084.69;;;24.42;43.33
67738;BME280;54534;43.612;1.572;2022-08-16T08:01:33;98093.41;;;24.44;43.38
67738;BME280;54534;43.612;1.572;2022-08-16T08:03:59;98089.69;;;24.45;43.13
67738;BME280;54534;43.612;1.572;2022-08-16T08:06:27;98081.44;;;24.47;43.18
67738;BME280;54534;43.612;1.572;2022-08-16T08:08:53;98084.94;;;24.47;43.27
67738;BME280;54534;43.612;1.572;2022-08-16T08:11:20;98085.59;;;24.49;43.43
67738;BME280;54534;43.612;1.572;2022-08-16T08:13:46;98081.88;;;24.50;43.41
67738;BME280;54534;43.612;1.572;2022-08-16T08:16:11;98088.94;;;24.51;43.48
67738;BME280;54534;43.612;1.572;2022-08-16T08:18:37;98081.69;;;24.52;43.16
67738;BME280;54534;43.612;1.572;2022-08-16T08:21:02;98072.59;;;24.53;43.39
67738;BME280;54534;43.612;1.572;2022-08-16T08:23:28;98078.63;;;24.55;43.41
67738;BME280;54534;43.612;1.572;2022-08-16T08:25:54;98086.50;;;24.57;43.18
67738;BME280;54534;43.612;1.572;2022-08-16T08:28:19;98081.13;;;24.57;43.44
67738;BME280;54534;43.612;1.572;2022-08-16T08:30:45;98080.91;;;24.58;43.26
67738;BME280;54534;43.612;1.572;2022-08-16T08:33:10;98074.31;;;24.61;43.18
67738;BME280;54534;43.612;1.572;2022-08-16T08:35:37;98084.06;;;24.62;43.35
67738;BME280;54534;43.612;1.572;2022-08-16T08:38:03;98074.16;;;24.62;43.23
67738;BME280;54534;43.612;1.572;2022-08-16T08:40:30;98080.38;;;24.63;43.34
67738;BME280;54534;43.612;1.572;2022-08-16T08:42:57;98084.53;;;24.65;43.24
67738;BME280;54534;43.612;1.572;2022-08-16T08:45:23;98086.19;;;24.66;42.94
67738;BME280;54534;43.612;1.572;2022-08-16T08:47:49;98082.47;;;24.68;43.10
67738;BME280;54534;43.612;1.572;2022-08-16T08:50:15;98083.31;;;24.68;42.93
67738;BME280;54534;43.612;1.572;2022-08-16T08:52:43;98083.31;;;24.68;43.00
67738;BME280;54534;43.612;1.572;2022-08-16T08:55:11;98084.78;;;24.71;43.15
67738;BME280;54534;43.612;1.572;2022-08-16T08:57:44;98083.75;;;24.72;43.14
67738;BME280;54534;43.612;1.572;2022-08-16T09:00:11;98079.22;;;24.72;43.11
67738;BME280;54534;43.612;1.572;2022-08-16T09:02:37;98085.41;;;24.73;43.21
67738;BME280;54534;43.612;1.572;2022-08-16T09:05:02;98065.56;;;24.74;43.19
67738;BME280;54534;43.612;1.572;2022-08-16T09:07:28;98071.78;;;24.74;43.15
67738;BME280;54534;43.612;1.572;2022-08-16T09:09:54;98061.03;;;24.74;42.85
67738;BME280;54534;43.612;1.572;2022-08-16T09:12:19;98064.34;;;24.76;42.87
67738;BME280;54534;43.612;1.572;2022-08-16T09:14:45;98060.00;;;24.75;42.72
67738;BME280;54534;43.612;1.572;2022-08-16T09:17:11;98063.34;;;24.77;42.94
67738;BME280;54534;43.612;1.572;2022-08-16T09:19:37;98063.13;;;24.79;42.98
67738;BME280;54534;43.612;1.572;2022-08-16T09:22:04;98058.59;;;24.80;42.83
67738;BME280;54534;43.612;1.572;2022-08-16T09:24:31;98061.28;;;24.80;42.78
67738;BME280;54534;43.612;1.572;2022-08-16T09:26:56;98060.25;;;24.81;43.10
67738;BME280;54534;43.612;1.572;2022-08-16T09:29:22;98066.28;;;24.83;42.78
67738;BME280;54534;43.612;1.572;2022-08-16T09:31:47;98059.03;;;24.83;43.05
67738;BME280;54534;43.612;1.572;2022-08-16T09:34:13;98066.91;;;24.85;42.80
67738;BME280;54534;43.612;1.572;2022-08-16T09:36:39;98064.22;;;24.85;42.76
67738;BME280;54534;43.612;1.572;2022-08-16T09:39:04;98057.81;;;24.86;42.95
67738;BME280;54534;43.612;1.572;2022-08-16T09:41:30;98058.66;;;24.86;42.72
67738;BME280;54534;43.612;1.572;2022-08-16T09:43:56;98060.31;;;24.87;43.05
67738;BME280;54534;43.612;1.572;2022-08-16T09:46:22;98061.16;;;24.88;43.02
67738;BME280;54534;43.612;1.572;2022-08-16T09:48:47;98050.41;;;24.88;42.98
67738;BME280;54534;43.612;1.572;2022-08-16T09:51:13;98053.72;;;24.90;42.90
67738;BME280;54534;43.612;1.572;2022-08-16T09:53:39;98059.09;;;24.90;43.03
67738;BME280;54534;43.612;1.572;2022-08-16T09:56:17;98061.59;;;24.92;42.91
67738;BME280;54534;43.612;1.572;2022-08-16T09:58:44;98054.38;;;24.92;42.71
67738;BME280;54534;43.612;1.572;2022-08-16T10:01:09;98048.16;;;24.92;42.73
67738;BME280;54534;43.612;1.572;2022-08-16T10:03:34;98062.44;;;24.92;42.89
67738;BME280;54534;43.612;1.572;2022-08-16T10:06:00;98046.94;;;24.94;43.08
67738;BME280;54534;43.612;1.572;2022-08-16T10:08:25;98047.94;;;24.93;42.76
67738;BME280;54534;43.612;1.572;2022-08-16T10:10:51;98048.59;;;24.95;42.63
67738;BME280;54534;43.612;1.572;2022-08-16T10:13:35;98047.56;;;24.96;42.60
67738;BME280;54534;43.612;1.572;2022-08-16T10:16:00;98045.72;;;24.97;42.61
67738;BME280;54534;43.612;1.572;2022-08-16T10:18:28;98046.56;;;24.97;42.60
67738;BME280;54534;43.612;1.572;2022-08-16T10:20:54;98040.13;;;24.98;42.53
67738;BME280;54534;43.612;1.572;2022-08-16T10:23:21;98045.50;;;24.98;42.77
67738;BME280;54534;43.612;1.572;2022-08-16T10:25:46;98052.38;;;25.01;42.73
67738;BME280;54534;43.612;1.572;2022-08-16T10:28:13;98052.38;;;25.01;42.70
67738;BME280;54534;43.612;1.572;2022-08-16T10:30:39;98045.16;;;25.02;42.57
67738;BME280;54534;43.612;1.572;2022-08-16T10:33:11;98046.84;;;25.03;42.58
67738;BME280;54534;43.612;1.572;2022-08-16T10:35:41;98050.53;;;25.02;42.57
67738;BME280;54534;43.612;1.572;2022-08-16T10:38:07;98058.59;;;25.02;42.84
67738;BME280;54534;43.612;1.572;2022-08-16T10:40:33;98053.03;;;25.03;42.45
67738;BME280;54534;43.612;1.572;2022-08-16T10:42:58;98043.09;;;25.04;42.69
67738;BME280;54534;43.612;1.572;2022-08-16T10:45:24;98050.16;;;25.05;42.91
67738;BME280;54534;43.612;1.572;2022-08-16T10:47:50;98043.94;;;25.04;42.91
67738;BME280;54534;43.612;1.572;2022-08-16T10:50:16;98048.09;;;25.07;42.70
67738;BME280;54534;43.612;1.572;2022-08-16T10:52:42;98041.88;;;25.06;42.76
67738;BME280;54534;43.612;1.572;2022-08-16T10:55:08;98043.56;;;25.07;42.56
67738;BME280;54534;43.612;1.572;2022-08-16T10:57:35;98038.19;;;25.07;42.49
67738;BME280;54534;43.612;1.572;2022-08-16T11:00:04;98041.69;;;25.08;42.59
67738;BME280;54534;43.612;1.572;2022-08-16T11:02:31;98036.31;;;25.08;42.48
67738;BME280;54534;43.612;1.572;2022-08-16T11:04:57;98036.13;;;25.09;42.88
67738;BME280;54534;43.612;1.572;2022-08-16T11:07:24;98039.81;;;25.08;42.73
67738;BME280;54534;43.612;1.572;2022-08-16T11:09:49;98053.09;;;25.10;42.45
67738;BME280;54534;43.612;1.572;2022-08-16T11:12:15;98039.66;;;25.10;42.59
67738;BME280;54534;43.612;1.572;2022-08-16T11:14:40;98052.88;;;25.12;42.83
67738;BME280;54534;43.612;1.572;2022-08-16T11:17:06;98051.03;;;25.12;42.87
67738;BME280;54534;43.612;1.572;2022-08-16T11:19:31;98053.72;;;25.12;42.87
67738;BME280;54534;43.612;1.572;2022-08-16T11:21:57;98053.50;;;25.14;42.81
67738;BME280;54534;43.612;1.572;2022-08-16T11:24:23;98060.78;;;25.13;42.52
67738;BME280;54534;43.612;1.572;2022-08-16T11:26:49;98059.72;;;25.14;42.71
67738;BME280;54534;43.612;1.572;2022-08-16T11:29:17;98059.56;;;25.16;42.47
67738;BME280;54534;43.612;1.572;2022-08-16T11:31:42;98052.28;;;25.16;42.63
67738;BME280;54534;43.612;1.572;2022-08-16T11:34:08;98060.34;;;25.16;42.79
67738;BME280;54534;43.612;1.572;2022-08-16T11:36:34;98056.84;;;25.16;42.72
67738;BME280;54534;43.612;1.572;2022-08-16T11:38:59;98063.88;;;25.17;42.55
67738;BME280;54534;43.612;1.572;2022-08-16T11:41:25;98064.72;;;25.17;42.76
67738;BME280;54534;43.612;1.572;2022-08-16T11:43:51;98070.94;;;25.18;42.36
67738;BME280;54534;43.612;1.572;2022-08-16T11:46:17;98071.78;;;25.18;42.61
67738;BME280;54534;43.612;1.572;2022-08-16T11:48:44;98073.41;;;25.19;42.72
67738;BME280;54534;43.612;1.572;2022-08-16T11:51:11;98077.78;;;25.20;42.70
67738;BME280;54534;43.612;1.572;2022-08-16T11:53:37;98082.13;;;25.21;42.80
67738;BME280;54534;43.612;1.572;2022-08-16T11:56:04;98086.69;;;25.21;42.76
67738;BME280;54534;43.612;1.572;2022-08-16T11:58:30;98077.56;;;25.22;42.48
67738;BME280;54534;43.612;1.572;2022-08-16T12:00:56;98074.06;;;25.21;42.36
67738;BME280;54534;43.612;1.572;2022-08-16T12:03:26;98081.94;;;25.23;42.92
67738;BME280;54534;43.612;1.572;2022-08-16T12:05:53;98081.09;;;25.23;42.53
67738;BME280;54534;43.612;1.572;2022-08-16T12:08:21;98078.22;;;25.24;42.47
67738;BME280;54534;43.612;1.572;2022-08-16T12:10:46;98090.84;;;25.24;42.70
67738;BME280;54534;43.612;1.572;2022-08-16T12:13:12;98085.47;;;25.24;42.63
67738;BME280;54534;43.612;1.572;2022-08-16T12:15:39;98087.13;;;25.25;42.68
67738;BME280;54534;43.612;1.572;2022-08-16T12:18:05;98077.19;;;25.25;42.44
67738;BME280;54534;43.612;1.572;2022-08-16T12:20:34;98078.03;;;25.26;42.29
67738;BME280;54534;43.612;1.572;2022-08-16T12:23:00;98075.34;;;25.26;42.53
67738;BME280;54534;43.612;1.572;2022-08-16T12:25:29;98075.13;;;25.27;42.85
67738;BME280;54534;43.612;1.572;2022-08-16T12:27:55;98074.28;;;25.27;42.81
67738;BME280;54534;43.612;1.572;2022-08-16T12:30:28;98073.28;;;25.28;42.66
67738;BME280;54534;43.612;1.572;2022-08-16T12:32:57;98071.44;;;25.28;42.65
67738;BME280;54534;43.612;1.572;2022-08-16T12:35:24;98075.78;;;25.29;42.53
67738;BME280;54534;43.612;1.572;2022-08-16T12:37:50;98077.66;;;25.29;42.83
67738;BME280;54534;43.612;1.572;2022-08-16T12:40:21;98075.59;;;25.31;42.51
67738;BME280;54534;43.612;1.572;2022-08-16T12:42:48;98074.75;;;25.30;42.51
67738;BME280;54534;43.612;1.572;2022-08-16T12:45:15;98072.91;;;25.31;42.62
67738;BME280;54534;43.612;1.572;2022-08-16T12:47:41;98070.22;;;25.31;42.63
67738;BME280;54534;43.612;1.572;2022-08-16T12:50:25;98071.88;;;25.32;42.38
67738;BME280;54534;43.612;1.572;2022-08-16T12:52:51;98070.00;;;25.32;42.49
67738;BME280;54534;43.612;1.572;2022-08-16T12:55:17;98067.31;;;25.32;42.60
67738;BME280;54534;43.612;1.572;2022-08-16T12:57:42;98099.41;;;25.34;42.43
67738;BME280;54534;43.612;1.572;2022-08-16T13:00:13;98081.59;;;25.33;42.77
67738;BME280;54534;43.612;1.572;2022-08-16T13:02:41;98091.34;;;25.34;42.57